createdAt,value
2017-06-23T00:00:00.972Z,91.70
2017-06-23T00:02:29.205Z,91.70
2017-06-23T00:04:57.401Z,91.80
2017-06-23T00:07:25.601Z,91.60
2017-06-23T00:09:54.006Z,92.00
2017-06-23T00:12:22.993Z,91.30
2017-06-23T00:14:51.276Z,91.20
2017-06-23T00:17:33.573Z,91.40
2017-06-23T00:20:03.145Z,91.40
2017-06-23T00:22:31.361Z,91.40
2017-06-23T00:25:00.320Z,90.80
2017-06-23T00:27:28.517Z,90.70
2017-06-23T00:29:57.533Z,90.80
2017-06-23T00:32:25.730Z,90.80
2017-06-23T00:34:53.924Z,91.10
2017-06-23T00:37:22.117Z,91.30
2017-06-23T00:39:50.318Z,91.10
2017-06-23T00:42:18.585Z,91.40
2017-06-23T00:44:47.673Z,91.40
2017-06-23T00:47:16.674Z,91.40
2017-06-23T00:49:45.647Z,91.50
2017-06-23T00:52:13.833Z,91.50
2017-06-23T00:54:42.794Z,91.10
2017-06-23T00:57:11.008Z,91.10
2017-06-23T00:59:39.960Z,90.40
2017-06-23T01:02:08.165Z,90.40
2017-06-23T01:04:37.158Z,90.20
2017-06-23T01:07:06.144Z,90.40
2017-06-23T01:09:35.108Z,90.20
2017-06-23T01:12:03.306Z,90.20
2017-06-23T01:14:32.269Z,90.50
2017-06-23T01:17:00.477Z,90.40
2017-06-23T01:19:29.477Z,90.90
2017-06-23T01:21:58.514Z,91.00
2017-06-23T01:24:26.841Z,90.90
2017-06-23T01:26:55.836Z,91.00
2017-06-23T01:29:24.817Z,91.00
2017-06-23T01:31:53.820Z,91.30
2017-06-23T01:34:22.789Z,91.40
2017-06-23T01:36:50.985Z,91.40
2017-06-23T01:39:19.945Z,91.40
2017-06-23T01:41:48.153Z,91.40
2017-06-23T01:44:17.112Z,91.50
2017-06-23T01:46:45.416Z,91.40
2017-06-23T01:49:14.408Z,91.20
2017-06-23T01:51:43.369Z,91.70
2017-06-23T01:54:11.565Z,91.40
2017-06-23T01:56:40.568Z,91.30
2017-06-23T01:59:09.557Z,91.40
2017-06-23T02:01:38.550Z,91.30
2017-06-23T02:04:07.513Z,91.30
2017-06-23T02:06:35.709Z,91.20
2017-06-23T02:09:04.668Z,91.50
2017-06-23T02:11:32.869Z,91.50
2017-06-23T02:14:01.152Z,91.40
2017-06-23T02:16:30.132Z,91.40
2017-06-23T02:18:58.520Z,91.40
2017-06-23T02:21:26.689Z,91.50
2017-06-23T02:23:55.678Z,91.50
2017-06-23T02:26:23.850Z,91.30
2017-06-23T02:28:52.048Z,91.40
2017-06-23T02:31:21.036Z,91.40
2017-06-23T02:33:49.310Z,91.40
2017-06-23T02:36:18.292Z,91.50
2017-06-23T02:38:47.294Z,91.40
2017-06-23T02:41:16.256Z,91.50
2017-06-23T02:43:44.537Z,91.50
2017-06-23T02:46:12.833Z,91.50
2017-06-23T02:48:41.036Z,91.50
2017-06-23T02:51:09.277Z,91.60
2017-06-23T02:53:38.236Z,91.70
2017-06-23T02:56:06.445Z,91.60
2017-06-23T02:58:35.440Z,91.40
2017-06-23T03:01:04.433Z,91.30
2017-06-23T03:03:33.396Z,91.10
2017-06-23T03:06:01.611Z,91.10
2017-06-23T03:08:30.564Z,91.10
2017-06-23T03:10:58.756Z,91.00
2017-06-23T03:13:26.952Z,91.00
2017-06-23T03:15:55.209Z,90.70
2017-06-23T03:18:24.204Z,90.90
2017-06-23T03:20:53.169Z,90.70
2017-06-23T03:23:21.368Z,90.70
2017-06-23T03:25:50.341Z,90.50
2017-06-23T03:28:18.528Z,90.50
2017-06-23T03:30:47.524Z,90.00
2017-06-23T03:33:16.493Z,90.00
2017-06-23T03:35:44.688Z,89.90
2017-06-23T03:38:13.680Z,89.60
2017-06-23T03:40:42.673Z,89.60
2017-06-23T03:43:11.665Z,89.80
2017-06-23T03:45:40.661Z,89.70
2017-06-23T03:48:09.706Z,89.60
2017-06-23T03:50:37.900Z,89.50
2017-06-23T03:53:06.094Z,89.70
2017-06-23T03:55:35.056Z,90.10
2017-06-23T03:58:03.257Z,90.00
2017-06-23T04:00:31.453Z,90.10
2017-06-23T04:02:59.653Z,89.80
2017-06-23T04:05:27.880Z,90.20
2017-06-23T04:07:56.880Z,90.10
2017-06-23T04:10:25.837Z,90.00
2017-06-23T04:12:54.041Z,90.00
2017-06-23T04:15:23.002Z,90.00
2017-06-23T04:17:51.205Z,90.00
2017-06-23T04:20:20.160Z,89.80
2017-06-23T04:22:48.377Z,89.80
2017-06-23T04:25:17.341Z,89.70
2017-06-23T04:27:45.537Z,89.70
2017-06-23T04:30:14.510Z,89.60
2017-06-23T04:32:42.808Z,89.50
2017-06-23T04:35:11.768Z,89.50
2017-06-23T04:37:40.001Z,89.40
2017-06-23T04:40:08.937Z,89.50
2017-06-23T04:42:37.249Z,89.40
2017-06-23T04:45:05.517Z,89.40
2017-06-23T04:47:34.472Z,89.60
2017-06-23T04:50:02.679Z,89.50
2017-06-23T04:52:31.777Z,89.60
2017-06-23T04:55:00.736Z,89.20
2017-06-23T04:57:28.937Z,89.20
2017-06-23T04:59:57.909Z,88.70
2017-06-23T05:02:26.103Z,88.60
2017-06-23T05:04:55.065Z,88.70
2017-06-23T05:07:23.273Z,88.60
2017-06-23T05:09:52.266Z,88.40
2017-06-23T05:12:21.225Z,88.40
2017-06-23T05:14:49.532Z,88.40
2017-06-23T05:17:18.533Z,88.50
2017-06-23T05:19:46.733Z,88.40
2017-06-23T05:22:14.925Z,88.90
2017-06-23T05:24:43.146Z,88.90
2017-06-23T05:27:12.105Z,89.00
2017-06-23T05:29:40.301Z,88.90
2017-06-23T05:32:09.300Z,88.30
2017-06-23T05:34:38.269Z,87.90
2017-06-23T05:37:06.565Z,87.90
2017-06-23T05:39:35.561Z,86.70
2017-06-23T05:42:03.812Z,86.60
2017-06-23T05:44:32.111Z,86.40
2017-06-23T05:47:01.092Z,86.30
2017-06-23T05:49:29.284Z,86.30
2017-06-23T05:51:58.249Z,85.60
2017-06-23T05:54:26.440Z,85.50
2017-06-23T05:56:55.433Z,85.70
2017-06-23T05:59:24.399Z,85.50
2017-06-23T06:01:52.704Z,85.50
2017-06-23T06:04:21.670Z,85.60
2017-06-23T06:06:49.973Z,85.40
2017-06-23T06:09:18.965Z,85.30
2017-06-23T06:11:47.949Z,84.70
2017-06-23T06:14:16.922Z,84.50
2017-06-23T06:16:45.227Z,84.40
2017-06-23T06:19:14.209Z,84.40
2017-06-23T06:21:42.431Z,84.40
2017-06-23T06:24:11.435Z,84.30
2017-06-23T06:26:40.425Z,83.60
2017-06-23T06:29:08.627Z,83.50
2017-06-23T06:31:36.855Z,83.20
2017-06-23T06:34:05.849Z,81.60
2017-06-23T06:36:34.805Z,81.90
2017-06-23T06:39:02.997Z,81.70
2017-06-23T06:41:31.233Z,81.60
2017-06-23T06:43:59.424Z,80.90
2017-06-23T06:46:27.652Z,80.80
2017-06-23T06:48:56.644Z,80.10
2017-06-23T06:51:25.620Z,79.80
2017-06-23T06:53:53.907Z,79.70
2017-06-23T06:56:22.098Z,80.90
2017-06-23T06:58:50.302Z,81.70
2017-06-23T07:01:18.497Z,81.70
2017-06-23T07:03:46.717Z,80.30
2017-06-23T07:06:15.694Z,80.70
2017-06-23T07:08:44.657Z,80.50
2017-06-23T07:11:12.964Z,80.50
2017-06-23T07:13:41.953Z,78.50
2017-06-23T07:16:10.916Z,78.70
2017-06-23T07:18:39.133Z,78.70
2017-06-23T07:21:07.308Z,78.30
2017-06-23T07:23:35.511Z,77.80
2017-06-23T07:26:03.737Z,76.90
2017-06-23T07:28:32.703Z,75.00
2017-06-23T07:31:00.897Z,75.00
2017-06-23T07:33:29.172Z,75.40
2017-06-23T07:35:57.348Z,74.70
2017-06-23T07:38:26.314Z,74.20
2017-06-23T07:40:54.523Z,74.20
2017-06-23T07:43:22.724Z,74.50
2017-06-23T07:45:50.972Z,73.90
2017-06-23T07:48:19.929Z,74.70
2017-06-23T07:50:48.328Z,74.50
2017-06-23T07:53:16.512Z,75.10
2017-06-23T07:55:45.504Z,75.30
2017-06-23T07:58:14.464Z,75.50
2017-06-23T08:00:42.664Z,75.50
2017-06-23T08:03:11.656Z,76.20
2017-06-23T08:05:40.616Z,75.80
2017-06-23T08:08:08.817Z,75.70
2017-06-23T08:10:37.776Z,75.50
2017-06-23T08:13:05.977Z,74.60
2017-06-23T08:15:34.274Z,73.80
2017-06-23T08:18:02.473Z,73.90
2017-06-23T08:20:30.669Z,74.40
2017-06-23T08:22:58.892Z,74.40
2017-06-23T08:25:27.850Z,75.00
2017-06-23T08:27:56.042Z,75.80
2017-06-23T08:30:24.268Z,74.20
2017-06-23T08:32:53.269Z,72.50
2017-06-23T08:35:22.253Z,72.00
2017-06-23T08:37:51.222Z,70.10
2017-06-23T08:40:19.529Z,70.00
2017-06-23T08:42:48.488Z,69.80
2017-06-23T08:45:16.799Z,69.80
2017-06-23T08:47:44.993Z,70.30
2017-06-23T08:50:13.192Z,70.40
2017-06-23T08:52:41.385Z,71.90
2017-06-23T08:55:09.689Z,72.60
2017-06-23T08:57:38.673Z,71.90
2017-06-23T09:00:06.890Z,71.80
2017-06-23T09:02:35.134Z,71.80
2017-06-23T09:05:04.093Z,68.80
2017-06-23T09:07:32.305Z,68.70
2017-06-23T09:10:01.288Z,68.80
2017-06-23T09:12:30.245Z,68.90
2017-06-23T09:14:58.657Z,68.70
2017-06-23T09:17:27.749Z,68.40
2017-06-23T09:19:55.926Z,68.40
2017-06-23T09:22:24.893Z,67.70
2017-06-23T09:24:53.196Z,67.70
2017-06-23T09:27:22.288Z,67.10
2017-06-23T09:29:51.545Z,66.70
2017-06-23T09:32:19.855Z,66.70
2017-06-23T09:34:48.008Z,66.30
2017-06-23T09:37:16.202Z,66.10
2017-06-23T09:39:44.400Z,66.40
2017-06-23T09:42:12.658Z,66.30
2017-06-23T09:44:41.616Z,65.60
2017-06-23T09:47:09.921Z,65.40
2017-06-23T09:49:38.945Z,64.20
2017-06-23T09:52:07.140Z,64.00
2017-06-23T09:54:35.360Z,65.10
2017-06-23T09:57:04.337Z,63.50
2017-06-23T09:59:32.648Z,63.50
2017-06-23T10:02:01.620Z,63.00
2017-06-23T10:04:30.601Z,63.00
2017-06-23T10:06:58.889Z,62.90
2017-06-23T10:09:27.852Z,61.20
2017-06-23T10:11:56.040Z,61.10
2017-06-23T10:14:24.304Z,61.20
2017-06-23T10:16:52.609Z,60.30
2017-06-23T10:19:21.577Z,60.00
2017-06-23T10:21:49.877Z,59.90
2017-06-23T10:24:18.850Z,59.70
2017-06-23T10:26:47.052Z,59.70
2017-06-23T10:29:15.411Z,59.40
2017-06-23T10:31:43.597Z,59.20
2017-06-23T10:34:12.585Z,59.40
2017-06-23T10:36:41.553Z,58.60
2017-06-23T10:39:09.849Z,58.60
2017-06-23T10:41:38.817Z,57.90
2017-06-23T10:44:07.005Z,57.80
2017-06-23T10:46:35.200Z,58.40
2017-06-23T10:49:03.392Z,57.80
2017-06-23T10:51:31.643Z,57.70
2017-06-23T10:54:00.612Z,57.60
2017-06-23T10:56:28.805Z,57.60
2017-06-23T10:58:57.792Z,57.80
2017-06-23T11:01:25.990Z,57.80
2017-06-23T11:03:54.190Z,57.70
2017-06-23T11:06:22.419Z,57.40
2017-06-23T11:08:50.623Z,57.60
2017-06-23T11:11:18.825Z,57.40
2017-06-23T11:13:47.041Z,56.60
2017-06-23T11:16:16.028Z,56.00
2017-06-23T11:18:45.025Z,55.70
2017-06-23T11:21:14.112Z,54.90
2017-06-23T11:23:42.273Z,54.90
2017-06-23T11:26:10.661Z,54.00
2017-06-23T11:28:38.821Z,53.20
2017-06-23T11:31:07.010Z,54.00
2017-06-23T11:33:35.988Z,54.10
2017-06-23T11:36:04.277Z,54.10
2017-06-23T11:38:33.246Z,53.10
2017-06-23T11:41:01.433Z,53.10
2017-06-23T11:43:29.620Z,53.30
2017-06-23T11:45:58.608Z,52.30
2017-06-23T11:48:27.569Z,51.90
2017-06-23T11:50:55.765Z,51.90
2017-06-23T11:53:24.053Z,52.10
2017-06-23T11:55:53.017Z,51.90
2017-06-23T11:58:21.321Z,51.20
2017-06-23T12:00:50.296Z,50.50
2017-06-23T12:03:18.588Z,50.50
2017-06-23T12:05:47.577Z,50.80
2017-06-23T12:08:16.544Z,50.90
2017-06-23T12:10:44.740Z,50.20
2017-06-23T12:13:12.933Z,49.00
2017-06-23T12:15:41.120Z,48.90
2017-06-23T12:18:09.369Z,48.30
2017-06-23T12:20:38.364Z,47.60
2017-06-23T12:23:07.353Z,47.20
2017-06-23T12:25:36.341Z,46.80
2017-06-23T12:28:05.332Z,48.00
2017-06-23T12:30:34.296Z,46.80
2017-06-23T12:33:02.756Z,46.80
2017-06-23T12:35:31.697Z,45.30
2017-06-23T12:38:00.688Z,46.30
2017-06-23T12:40:29.706Z,46.90
2017-06-23T12:42:57.960Z,46.30
2017-06-23T12:45:26.951Z,46.20
2017-06-23T12:47:55.945Z,46.90
2017-06-23T12:50:24.940Z,46.60
2017-06-23T12:52:53.931Z,46.90
2017-06-23T12:55:22.893Z,46.80
2017-06-23T12:57:51.098Z,46.70
2017-06-23T13:00:20.601Z,44.90
2017-06-23T13:02:48.788Z,44.80
2017-06-23T13:05:16.976Z,45.00
2017-06-23T13:07:45.168Z,45.90
2017-06-23T13:10:13.373Z,46.80
2017-06-23T13:12:41.659Z,47.90
2017-06-23T13:15:09.837Z,47.90
2017-06-23T13:17:38.828Z,49.40
2017-06-23T13:20:07.820Z,50.20
2017-06-23T13:22:36.098Z,49.60
2017-06-23T13:25:05.058Z,49.20
2017-06-23T13:27:33.261Z,48.90
2017-06-23T13:30:02.224Z,48.30
2017-06-23T13:32:30.410Z,48.30
2017-06-23T13:34:58.603Z,48.00
2017-06-23T13:37:27.600Z,47.50
2017-06-23T13:39:56.560Z,47.40
2017-06-23T13:42:24.756Z,47.30
2017-06-23T13:44:53.829Z,45.30
2017-06-23T13:47:22.336Z,45.20
2017-06-23T13:49:51.229Z,44.50
2017-06-23T13:52:19.437Z,42.80
2017-06-23T13:54:48.388Z,40.40
2017-06-23T13:57:16.604Z,40.30
2017-06-23T13:59:44.973Z,38.80
2017-06-23T14:02:13.149Z,38.10
2017-06-23T14:04:42.137Z,38.30
2017-06-23T14:07:10.297Z,38.20
2017-06-23T14:09:38.493Z,40.10
2017-06-23T14:12:06.681Z,42.30
2017-06-23T14:14:34.942Z,44.30
2017-06-23T14:17:03.931Z,41.50
2017-06-23T14:19:32.925Z,40.80
2017-06-23T14:22:01.876Z,40.30
2017-06-23T14:24:30.083Z,40.30
2017-06-23T14:26:59.084Z,38.60
2017-06-23T14:29:27.284Z,38.60
2017-06-23T14:31:55.536Z,38.60
2017-06-23T14:34:23.716Z,39.00
2017-06-23T14:36:51.908Z,38.90
2017-06-23T14:39:20.149Z,39.90
2017-06-23T14:41:49.140Z,42.70
2017-06-23T14:44:18.140Z,43.40
2017-06-23T14:46:46.342Z,43.40
2017-06-23T14:49:14.581Z,43.50
2017-06-23T14:51:43.573Z,43.80
2017-06-23T14:54:12.530Z,44.60
2017-06-23T14:56:40.742Z,44.50
2017-06-23T14:59:09.733Z,45.30
2017-06-23T15:01:38.693Z,45.70
2017-06-23T15:04:06.896Z,45.70
2017-06-23T15:06:35.889Z,45.70
2017-06-23T15:09:04.044Z,46.20
2017-06-23T15:11:32.343Z,45.80
2017-06-23T15:14:01.298Z,42.20
2017-06-23T15:16:29.532Z,42.10
2017-06-23T15:18:58.802Z,39.80
2017-06-23T15:21:25.460Z,39.80
2017-06-23T15:23:52.159Z,39.50
2017-06-23T15:26:18.093Z,39.50
2017-06-23T15:28:44.009Z,40.50
2017-06-23T15:31:09.927Z,41.10
2017-06-23T15:33:35.861Z,43.10
2017-06-23T15:36:01.777Z,42.50
2017-06-23T15:38:27.709Z,42.70
2017-06-23T15:40:54.380Z,45.70
2017-06-23T15:43:20.314Z,45.20
2017-06-23T15:45:46.249Z,45.80
2017-06-23T15:48:12.167Z,45.50
2017-06-23T15:50:38.140Z,45.30
2017-06-23T15:53:04.804Z,46.30
2017-06-23T15:55:30.744Z,46.30
2017-06-23T15:57:56.671Z,46.60
2017-06-23T16:00:22.940Z,47.10
2017-06-23T16:02:48.941Z,47.60
2017-06-23T16:05:14.889Z,47.60
2017-06-23T16:07:40.807Z,48.10
2017-06-23T16:10:07.473Z,47.70
2017-06-23T16:12:33.396Z,48.00
2017-06-23T16:14:59.333Z,47.40
2017-06-23T16:17:25.257Z,47.40
2017-06-23T16:19:51.172Z,47.60
2017-06-23T16:22:17.097Z,47.70
2017-06-23T16:24:43.035Z,48.00
2017-06-23T16:27:08.980Z,48.20
2017-06-23T16:29:34.896Z,48.70
2017-06-23T16:32:00.852Z,49.00
2017-06-23T16:34:26.772Z,49.20
2017-06-23T16:36:52.693Z,49.00
2017-06-23T16:39:18.696Z,49.30
2017-06-23T16:41:45.355Z,49.40
2017-06-23T16:44:11.284Z,49.30
2017-06-23T16:46:37.213Z,49.60
2017-06-23T16:49:03.136Z,50.00
2017-06-23T16:51:29.062Z,50.00
2017-06-23T16:53:55.010Z,49.90
2017-06-23T16:56:20.932Z,49.80
2017-06-23T16:58:46.873Z,50.60
2017-06-23T17:01:12.824Z,50.00
2017-06-23T17:03:38.748Z,50.50
2017-06-23T17:06:04.674Z,50.50
2017-06-23T17:08:30.605Z,50.20
2017-06-23T17:10:56.536Z,50.60
2017-06-23T17:13:22.454Z,49.90
2017-06-23T17:15:48.401Z,50.40
2017-06-23T17:18:14.325Z,50.50
2017-06-23T17:20:40.243Z,50.90
2017-06-23T17:23:06.180Z,51.60
2017-06-23T17:25:32.108Z,51.50
2017-06-23T17:27:58.804Z,52.70
2017-06-23T17:30:24.725Z,52.60
2017-06-23T17:32:50.740Z,53.00
2017-06-23T17:35:16.674Z,53.30
2017-06-23T17:37:42.613Z,53.40
2017-06-23T17:40:08.532Z,53.40
2017-06-23T17:42:34.461Z,53.10
2017-06-23T17:45:01.156Z,53.10
2017-06-23T17:47:27.073Z,53.00
2017-06-23T17:49:52.996Z,53.40
2017-06-23T17:52:18.912Z,53.40
2017-06-23T17:54:44.933Z,53.70
2017-06-23T17:57:10.877Z,53.80
2017-06-23T17:59:36.812Z,54.00
2017-06-23T18:02:02.746Z,53.90
2017-06-23T18:04:29.413Z,54.40
2017-06-23T18:06:55.350Z,54.40
2017-06-23T18:09:21.301Z,54.70
2017-06-23T18:11:47.220Z,54.90
2017-06-23T18:14:13.140Z,54.90
2017-06-23T18:16:39.084Z,55.10
2017-06-23T18:19:05.755Z,55.20
2017-06-23T18:21:31.679Z,55.20
2017-06-23T18:23:57.597Z,55.30
2017-06-23T18:26:23.549Z,55.60
2017-06-23T18:28:49.468Z,55.80
2017-06-23T18:31:15.421Z,55.60
2017-06-23T18:33:41.337Z,55.60
2017-06-23T18:36:07.256Z,55.70
2017-06-23T18:38:33.185Z,55.70
2017-06-23T18:40:59.844Z,55.50
2017-06-23T18:43:25.776Z,55.60
2017-06-23T18:45:51.696Z,55.60
2017-06-23T18:48:17.616Z,55.60
2017-06-23T18:50:43.540Z,55.40
2017-06-23T18:53:09.461Z,55.20
2017-06-23T18:55:35.389Z,55.20
2017-06-23T18:58:01.324Z,55.30
2017-06-23T19:00:27.242Z,55.20
2017-06-23T19:02:53.168Z,55.50
2017-06-23T19:05:19.097Z,55.40
2017-06-23T19:07:45.024Z,55.80
2017-06-23T19:10:10.937Z,55.80
2017-06-23T19:12:36.865Z,55.70
2017-06-23T19:15:02.800Z,55.80
2017-06-23T19:17:28.748Z,56.00
2017-06-23T19:19:54.664Z,55.80
2017-06-23T19:22:20.597Z,56.20
2017-06-23T19:24:46.526Z,56.40
2017-06-23T19:27:12.440Z,56.20
2017-06-23T19:29:38.369Z,56.60
2017-06-23T19:32:04.285Z,56.50
2017-06-23T19:34:30.200Z,56.80
2017-06-23T19:36:56.117Z,56.70
2017-06-23T19:39:22.044Z,56.90
2017-06-23T19:41:47.976Z,56.80
2017-06-23T19:44:13.916Z,56.30
2017-06-23T19:46:39.840Z,56.60
2017-06-23T19:49:05.769Z,56.70
2017-06-23T19:51:31.700Z,56.40
2017-06-23T19:53:57.624Z,56.50
2017-06-23T19:56:23.545Z,56.40
2017-06-23T19:58:49.470Z,56.10
2017-06-23T20:01:15.393Z,56.20
2017-06-23T20:03:42.056Z,55.90
2017-06-23T20:06:07.979Z,55.90
2017-06-23T20:08:33.900Z,56.20
2017-06-23T20:10:59.833Z,58.10
2017-06-23T20:13:25.756Z,59.40
2017-06-23T20:15:51.829Z,61.00
2017-06-23T20:18:17.748Z,62.00
2017-06-23T20:20:43.673Z,62.90
2017-06-23T20:23:09.589Z,63.90
2017-06-23T20:25:35.528Z,64.50
2017-06-23T20:28:01.450Z,64.50
2017-06-23T20:30:27.376Z,64.40
2017-06-23T20:32:53.388Z,65.20
2017-06-23T20:35:20.143Z,65.70
2017-06-23T20:37:46.231Z,65.50
2017-06-23T20:40:13.016Z,66.80
2017-06-23T20:42:39.072Z,66.70
2017-06-23T20:45:05.105Z,66.30
2017-06-23T20:47:31.855Z,67.00
2017-06-23T20:49:57.914Z,66.90
2017-06-23T20:52:24.108Z,67.50
2017-06-23T20:54:50.326Z,66.80
2017-06-23T20:57:16.317Z,66.40
2017-06-23T20:59:42.469Z,66.50
2017-06-23T21:02:09.321Z,67.50
2017-06-23T21:04:36.089Z,67.20
2017-06-23T21:07:02.819Z,66.90
2017-06-23T21:09:28.795Z,66.70
2017-06-23T21:11:54.763Z,66.90
2017-06-23T21:14:21.467Z,66.20
2017-06-23T21:16:47.473Z,66.10
2017-06-23T21:19:13.498Z,67.10
2017-06-23T21:21:39.445Z,67.50
2017-06-23T21:24:05.511Z,67.10
2017-06-23T21:26:31.550Z,66.00
2017-06-23T21:28:58.438Z,64.50
2017-06-23T21:31:24.529Z,64.50
2017-06-23T21:33:50.589Z,63.70
2017-06-23T21:36:16.784Z,63.80
2017-06-23T21:38:42.861Z,63.90
2017-06-23T21:41:21.390Z,64.10
2017-06-23T21:43:47.489Z,63.90
2017-06-23T21:46:13.605Z,63.00
2017-06-23T21:48:40.587Z,63.30
2017-06-23T21:51:07.006Z,63.10
2017-06-23T21:53:33.853Z,62.50
2017-06-23T21:56:00.092Z,62.50
2017-06-23T21:58:26.327Z,62.30
2017-06-23T22:00:52.467Z,61.40
2017-06-23T22:03:19.288Z,61.70
2017-06-23T22:05:45.388Z,61.70
2017-06-23T22:08:11.458Z,60.90
2017-06-23T22:10:37.500Z,60.40
2017-06-23T22:13:04.394Z,61.90
2017-06-23T22:15:30.556Z,61.70
2017-06-23T22:17:56.605Z,61.80
2017-06-23T22:20:22.660Z,61.80
2017-06-23T22:22:48.724Z,61.20
2017-06-23T22:25:14.952Z,61.70
2017-06-23T22:27:41.101Z,62.40
2017-06-23T22:30:07.994Z,61.40
2017-06-23T22:32:34.323Z,61.40
2017-06-23T22:35:00.764Z,61.80
2017-06-23T22:37:27.115Z,61.60
2017-06-23T22:39:53.384Z,62.00
2017-06-23T22:42:20.289Z,62.10
2017-06-23T22:44:46.476Z,61.20
2017-06-23T22:47:12.667Z,62.10
2017-06-23T22:49:38.787Z,64.20
2017-06-23T22:52:05.055Z,62.60
2017-06-23T22:54:31.123Z,62.30
2017-06-23T22:56:57.233Z,61.90
2017-06-23T22:59:23.491Z,61.80
2017-06-23T23:01:49.855Z,61.60
2017-06-23T23:04:15.912Z,61.90
2017-06-23T23:06:42.016Z,61.90
2017-06-23T23:09:08.276Z,62.00
2017-06-23T23:11:34.348Z,61.80
2017-06-23T23:14:00.356Z,62.20
2017-06-23T23:16:26.331Z,62.40
2017-06-23T23:18:52.506Z,62.70
2017-06-23T23:21:18.569Z,62.90
2017-06-23T23:23:44.963Z,63.00
2017-06-23T23:26:11.621Z,63.30
2017-06-23T23:28:46.262Z,63.80
2017-06-23T23:31:12.240Z,63.80
2017-06-23T23:33:38.258Z,64.10
2017-06-23T23:36:04.193Z,64.20
2017-06-23T23:38:30.113Z,64.50
2017-06-23T23:40:56.046Z,64.80
2017-06-23T23:43:22.022Z,64.60
2017-06-23T23:45:48.145Z,64.90
2017-06-23T23:48:14.141Z,65.10
2017-06-23T23:50:40.065Z,65.10
2017-06-23T23:53:06.133Z,65.20
2017-06-23T23:55:32.841Z,65.50
2017-06-23T23:57:58.873Z,65.40
